Time;durP1;ratioP1;P1;durP2;ratioP2;P2;SDS_P1;SDS_P2;PMS_P1;PMS_P2;Temp;Humidity;BMP_temperature;BMP_pressure;BME280_temperature;BME280_humidity;BME280_pressure;Samples;Min_cycle;Max_cycle;Signal;HPM_P1;HPM_P2
2021/08/21 00:00:17;;;;;;;;;;;14.70;99.90;;;;;;5051277;28;20108;-78
2021/08/21 00:02:42;;;;;;;8.48;4.10;;;14.70;99.90;;;;;;5049659;28;19921;-80
2021/08/21 00:05:08;;;;;;;;;;;14.70;99.90;;;;;;5052609;28;20052;-79
2021/08/21 00:07:35;;;;;;;4.85;3.97;;;14.70;99.90;;;;;;5051929;28;20281;-78
2021/08/21 00:10:02;;;;;;;;;;;14.80;99.90;;;;;;5051767;28;20048;-78
2021/08/21 00:12:28;;;;;;;3.75;3.33;;;14.80;99.90;;;;;;5050928;28;20310;-77
2021/08/21 00:14:54;;;;;;;6.22;3.97;;;14.90;99.90;;;;;;5049998;28;20055;-78
2021/08/21 00:17:20;;;;;;;4.65;3.75;;;14.90;99.90;;;;;;5049340;28;20045;-78
2021/08/21 00:19:46;;;;;;;8.95;4.55;;;14.90;99.90;;;;;;5050977;28;20094;-77
2021/08/21 00:22:13;;;;;;;6.32;4.40;;;14.90;99.90;;;;;;5051996;28;20514;-80
2021/08/21 00:24:40;;;;;;;5.40;4.05;;;14.90;99.90;;;;;;5051121;28;20082;-80
2021/08/21 00:27:06;;;;;;;7.85;4.40;;;14.90;99.90;;;;;;5051764;28;20041;-79
2021/08/21 00:29:32;;;;;;;7.03;3.03;;;15.00;99.90;;;;;;5039664;28;20041;-77
2021/08/21 00:32:00;;;;;;;4.68;3.17;;;15.00;99.90;;;;;;5050519;28;20051;-78
2021/08/21 00:34:26;;;;;;;3.70;2.72;;;15.00;99.90;;;;;;5050778;28;20047;-78
2021/08/21 00:36:52;;;;;;;5.47;3.70;;;15.00;99.90;;;;;;5050905;28;20635;-81
2021/08/21 00:39:17;;;;;;;;;;;15.00;99.90;;;;;;5051580;28;20045;-81
2021/08/21 00:41:43;;;;;;;4.53;3.30;;;15.10;99.90;;;;;;5050878;28;19917;-79
2021/08/21 00:44:10;;;;;;;7.20;4.32;;;15.00;99.90;;;;;;5031886;28;20041;-80
2021/08/21 00:46:59;;;;;;;8.32;3.90;;;15.10;99.90;;;;;;5044106;28;20065;-78
2021/08/21 00:49:27;;;;;;;6.70;3.90;;;15.10;99.90;;;;;;5047899;28;20049;-78
2021/08/21 00:51:53;;;;;;;8.02;3.80;;;15.10;99.90;;;;;;5050718;28;20108;-79
2021/08/21 00:54:19;;;;;;;4.60;3.55;;;15.10;99.90;;;;;;5055112;28;20124;-80
2021/08/21 00:56:44;;;;;;;6.72;3.90;;;15.20;99.90;;;;;;5054859;28;20044;-79
2021/08/21 00:59:10;;;;;;;9.85;3.92;;;15.20;99.90;;;;;;5055384;28;20033;-78
2021/08/21 01:01:36;;;;;;;5.57;3.45;;;15.20;99.90;;;;;;5037854;28;20037;-77
2021/08/21 01:04:02;;;;;;;;;;;15.20;99.90;;;;;;5052911;28;20116;-80
2021/08/21 01:06:28;;;;;;;7.68;3.83;;;15.20;99.90;;;;;;5055608;28;20008;-77
2021/08/21 01:08:53;;;;;;;;;;;15.20;99.90;;;;;;5054552;28;20079;-79
2021/08/21 01:11:20;;;;;;;4.75;2.13;;;15.20;99.90;;;;;;5055442;28;20251;-78
2021/08/21 01:13:46;;;;;;;4.05;3.33;;;15.20;99.90;;;;;;5055251;28;20045;-79
2021/08/21 01:16:12;;;;;;;6.80;2.50;;;15.20;99.90;;;;;;5056577;28;20040;-76
2021/08/21 01:18:38;;;;;;;;;;;15.30;99.90;;;;;;5053769;28;20068;-79
2021/08/21 01:21:06;;;;;;;5.80;2.40;;;15.30;99.90;;;;;;5055026;28;20390;-79
2021/08/21 01:23:32;;;;;;;5.22;3.72;;;15.30;99.90;;;;;;5054296;28;20067;-77
2021/08/21 01:25:58;;;;;;;5.35;3.30;;;15.20;99.90;;;;;;5051466;28;20065;-79
2021/08/21 01:28:23;;;;;;;4.50;3.65;;;15.30;99.90;;;;;;5050321;28;20032;-77
2021/08/21 01:30:50;;;;;;;4.70;3.08;;;15.20;99.90;;;;;;5052974;28;20355;-79
2021/08/21 01:33:16;;;;;;;4.57;2.58;;;15.30;99.90;;;;;;5053959;28;20390;-79
2021/08/21 01:35:42;;;;;;;7.38;3.78;;;15.30;99.90;;;;;;5054960;28;20045;-79
2021/08/21 01:38:07;;;;;;;4.35;3.58;;;15.30;99.90;;;;;;5053436;28;20033;-79
2021/08/21 01:40:33;;;;;;;;;;;15.30;99.90;;;;;;5054565;28;20437;-77
2021/08/21 01:42:59;;;;;;;5.22;3.05;;;15.30;99.90;;;;;;5053686;28;20335;-80
2021/08/21 01:45:25;;;;;;;;;;;15.30;99.90;;;;;;5055415;28;20045;-78
2021/08/21 01:47:51;;;;;;;6.05;3.28;;;15.30;99.90;;;;;;5052858;28;19978;-79
2021/08/21 01:50:19;;;;;;;4.13;2.80;;;15.30;99.90;;;;;;5053504;28;20146;-78
2021/08/21 01:52:50;;;;;;;4.32;2.40;;;15.40;99.90;;;;;;5053828;28;20063;-78
2021/08/21 01:55:16;;;;;;;5.20;2.95;;;15.30;99.90;;;;;;5054116;28;20068;-78
2021/08/21 01:57:46;;;;;;;7.47;3.00;;;15.40;99.90;;;;;;5051079;28;20083;-79
2021/08/21 02:00:13;;;;;;;5.57;2.97;;;15.40;99.90;;;;;;5053942;28;20041;-80
2021/08/21 02:02:39;;;;;;;5.25;4.05;;;15.40;99.90;;;;;;5053079;28;20120;-80
2021/08/21 02:05:06;;;;;;;6.03;3.17;;;15.40;99.90;;;;;;5054135;28;20472;-80
2021/08/21 02:07:32;;;;;;;5.00;3.03;;;15.40;99.90;;;;;;5054196;28;20485;-77
2021/08/21 02:09:58;;;;;;;5.40;3.58;;;15.40;99.90;;;;;;5052916;28;20046;-78
2021/08/21 02:12:24;;;;;;;;;;;15.40;99.90;;;;;;5052925;28;20032;-78
2021/08/21 02:14:49;;;;;;;6.05;2.88;;;15.40;99.90;;;;;;5052487;28;19917;-77
2021/08/21 02:17:15;;;;;;;5.28;3.45;;;15.40;99.90;;;;;;5052614;28;20374;-77
2021/08/21 02:19:41;;;;;;;;;;;15.40;99.90;;;;;;5054535;28;20057;-78
2021/08/21 02:22:07;;;;;;;5.53;3.10;;;15.40;99.90;;;;;;5052400;28;19925;-79
2021/08/21 02:24:34;;;;;;;4.03;2.72;;;15.40;99.90;;;;;;5054260;28;20064;-78
2021/08/21 02:27:02;;;;;;;5.32;3.15;;;15.40;99.90;;;;;;5049581;28;20029;-78
2021/08/21 02:29:29;;;;;;;5.40;3.17;;;15.50;99.90;;;;;;5049587;28;20037;-78
2021/08/21 02:31:55;;;;;;;6.88;3.63;;;15.50;99.90;;;;;;5044673;28;20060;-79
2021/08/21 02:34:22;;;;;;;6.22;3.20;;;15.50;99.90;;;;;;5052068;28;20490;-80
2021/08/21 02:36:48;;;;;;;7.45;3.50;;;15.50;99.90;;;;;;5053173;28;20060;-78
2021/08/21 02:39:14;;;;;;;6.95;2.72;;;15.50;99.90;;;;;;5053965;28;20063;-80
2021/08/21 02:41:40;;;;;;;4.40;3.40;;;15.50;99.90;;;;;;5051375;28;20057;-80
2021/08/21 02:44:06;;;;;;;3.08;2.55;;;15.50;99.90;;;;;;5052456;28;20059;-79
2021/08/21 02:46:31;;;;;;;;;;;15.50;99.90;;;;;;5052545;28;20474;-78
2021/08/21 02:48:58;;;;;;;2.78;2.55;;;15.50;99.90;;;;;;5052744;28;19939;-79
2021/08/21 02:51:24;;;;;;;6.18;3.72;;;15.40;99.90;;;;;;5052494;28;20390;-80
2021/08/21 02:53:50;;;;;;;;;;;15.40;99.90;;;;;;5054552;28;20037;-78
2021/08/21 02:56:16;;;;;;;7.82;4.38;;;15.40;99.90;;;;;;5053076;28;19982;-77
2021/08/21 02:58:41;;;;;;;;;;;15.40;99.90;;;;;;5051287;28;20045;-77
2021/08/21 03:01:07;;;;;;;7.70;3.38;;;15.40;99.90;;;;;;5053057;28;19917;-78
2021/08/21 03:03:33;;;;;;;;;;;15.40;99.90;;;;;;5052132;28;20037;-78
2021/08/21 03:05:59;;;;;;;7.40;4.13;;;15.40;99.90;;;;;;5052821;28;19916;-79
2021/08/21 03:08:24;;;;;;;3.33;2.58;;;15.40;99.90;;;;;;5051956;28;20430;-80
2021/08/21 03:10:50;;;;;;;3.67;2.83;;;15.40;99.90;;;;;;5051638;28;20041;-79
2021/08/21 03:13:16;;;;;;;;;;;15.40;99.90;;;;;;5052356;28;20568;-77
2021/08/21 03:15:42;;;;;;;4.22;2.88;;;15.40;99.90;;;;;;5052963;28;19944;-79
2021/08/21 03:18:09;;;;;;;6.53;4.28;;;15.40;99.90;;;;;;5051305;28;20127;-77
2021/08/21 03:20:34;;;;;;;5.75;4.05;;;15.40;99.90;;;;;;5052504;28;20057;-77
2021/08/21 03:23:00;;;;;;;8.35;4.57;;;15.50;99.90;;;;;;5052463;28;20040;-79
2021/08/21 03:25:26;;;;;;;;;;;15.50;99.90;;;;;;5053085;28;20048;-79
2021/08/21 03:27:52;;;;;;;7.22;3.83;;;15.50;99.90;;;;;;5044577;28;20370;-79
2021/08/21 03:30:17;;;;;;;;;;;15.50;99.90;;;;;;5033699;28;20045;-80
2021/08/21 03:32:43;;;;;;;4.53;2.30;;;15.60;99.90;;;;;;5050735;28;19916;-78
2021/08/21 03:35:10;;;;;;;4.57;3.42;;;15.60;99.90;;;;;;5054355;28;20045;-79
2021/08/21 03:37:36;;;;;;;5.35;3.17;;;15.60;99.90;;;;;;5053297;28;20037;-78
2021/08/21 03:40:03;;;;;;;4.50;3.58;;;15.60;99.90;;;;;;5052146;28;20044;-77
2021/08/21 03:42:28;;;;;;;4.65;3.00;;;15.60;99.90;;;;;;5051531;28;20158;-78
2021/08/21 03:44:54;;;;;;;6.00;3.97;;;15.60;99.90;;;;;;5051919;28;20120;-77
2021/08/21 03:47:20;;;;;;;6.50;3.42;;;15.70;99.90;;;;;;5050930;28;20083;-77
2021/08/21 03:49:46;;;;;;;;;;;15.60;99.90;;;;;;5051273;28;20033;-78
2021/08/21 03:52:12;;;;;;;11.00;3.90;;;15.70;99.90;;;;;;5051786;28;20385;-78
2021/08/21 03:54:38;;;;;;;8.23;4.55;;;15.70;99.90;;;;;;5052473;28;20041;-79
2021/08/21 03:57:03;;;;;;;;;;;15.70;99.90;;;;;;5051923;28;20095;-79
2021/08/21 03:59:29;;;;;;;10.60;4.40;;;15.70;99.90;;;;;;5052437;28;20321;-78
2021/08/21 04:01:55;;;;;;;4.80;3.45;;;15.70;99.90;;;;;;5049993;28;20387;-79
2021/08/21 04:04:21;;;;;;;4.30;3.03;;;15.70;99.90;;;;;;5050734;28;20055;-77
2021/08/21 04:06:47;;;;;;;;;;;15.70;99.90;;;;;;5051738;28;20037;-77
2021/08/21 04:09:12;;;;;;;8.18;4.55;;;15.70;99.90;;;;;;5053226;28;20441;-78
2021/08/21 04:11:38;;;;;;;11.43;5.47;;;15.60;99.90;;;;;;5054427;28;20041;-79
2021/08/21 04:14:04;;;;;;;;;;;15.60;99.90;;;;;;5058544;28;20035;-77
2021/08/21 04:16:30;;;;;;;11.77;4.15;;;15.60;99.90;;;;;;5055876;28;19917;-77
2021/08/21 04:18:55;;;;;;;;;;;15.60;99.90;;;;;;5052936;28;20118;-79
2021/08/21 04:21:21;;;;;;;8.05;4.22;;;15.60;99.90;;;;;;5053346;28;19951;-78
2021/08/21 04:23:47;;;;;;;8.13;4.47;;;15.60;99.90;;;;;;5052033;28;20395;-79
2021/08/21 04:26:13;;;;;;;5.88;4.25;;;15.60;99.90;;;;;;5050621;28;20047;-77
2021/08/21 04:28:38;;;;;;;;;;;15.50;99.90;;;;;;5052114;28;20029;-79
2021/08/21 04:31:04;;;;;;;8.68;4.35;;;15.60;99.90;;;;;;5050231;28;19917;-79
2021/08/21 04:33:30;;;;;;;7.43;3.90;;;15.50;99.90;;;;;;5051235;28;20044;-77
2021/08/21 04:35:56;;;;;;;7.18;4.78;;;15.50;99.90;;;;;;5050590;28;20052;-79
2021/08/21 04:38:22;;;;;;;7.90;3.58;;;15.40;99.90;;;;;;5051743;28;20037;-78
2021/08/21 04:40:48;;;;;;;10.65;5.70;;;15.40;99.90;;;;;;5052013;28;20040;-78
2021/08/21 04:43:14;;;;;;;;;;;15.40;99.90;;;;;;5051118;28;20095;-79
2021/08/21 04:45:40;;;;;;;6.35;4.10;;;15.30;99.90;;;;;;5051498;28;19917;-78
2021/08/21 04:48:08;;;;;;;6.07;3.97;;;15.30;99.90;;;;;;5050168;28;20061;-79
2021/08/21 04:50:35;;;;;;;10.18;4.00;;;15.30;99.90;;;;;;5051580;28;20067;-80
2021/08/21 04:53:03;;;;;;;6.32;3.97;;;15.30;99.90;;;;;;5050669;28;20540;-79
2021/08/21 04:55:29;;;;;;;10.93;5.30;;;15.30;99.90;;;;;;5050020;28;20112;-79
2021/08/21 04:57:56;;;;;;;9.05;4.70;;;15.30;99.90;;;;;;5049752;28;20459;-80
2021/08/21 05:00:21;;;;;;;11.90;6.05;;;15.30;99.90;;;;;;5050789;28;20072;-78
2021/08/21 05:02:47;;;;;;;5.85;4.18;;;15.40;99.90;;;;;;5050689;28;20068;-77
2021/08/21 05:05:13;;;;;;;8.57;4.18;;;15.40;99.90;;;;;;5050763;28;20025;-78
2021/08/21 05:07:46;;;;;;;;;;;15.40;99.90;;;;;;5034328;28;20040;-80
2021/08/21 05:10:13;;;;;;;6.93;4.15;;;15.50;99.90;;;;;;5050730;28;20442;-79
2021/08/21 05:12:39;;;;;;;13.65;3.65;;;15.50;99.90;;;;;;5052091;28;20470;-78
2021/08/21 05:15:06;;;;;;;10.25;6.20;;;15.50;99.90;;;;;;5050519;28;20044;-79
2021/08/21 05:17:33;;;;;;;8.18;4.60;;;15.60;99.90;;;;;;5050566;28;20107;-79
2021/08/21 05:20:04;;;;;;;9.45;5.45;;;15.40;99.90;;;;;;5052420;28;20045;-79
2021/08/21 05:22:46;;;;;;;9.65;4.93;;;15.60;99.90;;;;;;5051313;28;20048;-78
2021/08/21 05:25:14;;;;;;;7.60;4.65;;;15.60;99.90;;;;;;5036174;28;20037;-78
2021/08/21 05:27:39;;;;;;;7.05;4.30;;;15.60;99.90;;;;;;5048701;28;20039;-79
2021/08/21 05:30:06;;;;;;;11.20;5.38;;;15.70;99.90;;;;;;5050427;28;20044;-78
2021/08/21 05:32:33;;;;;;;12.43;5.97;;;15.70;99.90;;;;;;5049589;28;20045;-77
2021/08/21 05:34:59;;;;;;;7.65;5.60;;;15.70;99.90;;;;;;5052488;28;20033;-79
2021/08/21 05:37:25;;;;;;;11.70;6.22;;;15.70;99.90;;;;;;5054262;28;20123;-80
2021/08/21 05:39:51;;;;;;;7.40;4.93;;;15.70;99.90;;;;;;5055123;28;20451;-78
2021/08/21 05:42:17;;;;;;;11.10;5.95;;;15.70;99.90;;;;;;5035990;28;20115;-79
2021/08/21 05:44:43;;;;;;;10.45;5.28;;;15.70;99.90;;;;;;5053226;28;20029;-79
2021/08/21 05:47:09;;;;;;;6.38;4.72;;;15.70;99.90;;;;;;5052583;28;20458;-77
2021/08/21 05:49:35;;;;;;;;;;;15.70;99.90;;;;;;5055225;28;20102;-79
2021/08/21 05:52:00;;;;;;;11.70;5.72;;;15.70;99.90;;;;;;5054743;28;20016;-78
2021/08/21 05:54:26;;;;;;;15.82;6.07;;;15.80;99.90;;;;;;5055758;28;20421;-79
2021/08/21 05:56:52;;;;;;;;;;;15.80;99.90;;;;;;5057520;28;20363;-78
2021/08/21 05:59:18;;;;;;;11.00;6.53;;;15.90;99.90;;;;;;5056477;28;19916;-78
2021/08/21 06:01:43;;;;;;;11.18;5.45;;;15.90;99.90;;;;;;5053762;28;20032;-79
2021/08/21 06:04:09;;;;;;;;;;;16.00;99.90;;;;;;5055081;28;20065;-77
2021/08/21 06:06:36;;;;;;;7.82;5.63;;;16.00;99.90;;;;;;5054270;28;19932;-78
2021/08/21 06:09:04;;;;;;;12.18;5.00;;;16.00;99.90;;;;;;5054028;28;20394;-77
2021/08/21 06:11:30;;;;;;;7.70;5.40;;;16.00;99.90;;;;;;5054820;28;20458;-80
2021/08/21 06:13:56;;;;;;;9.10;5.00;;;16.00;99.90;;;;;;5053935;28;20107;-79
2021/08/21 06:16:22;;;;;;;9.15;5.90;;;16.10;99.90;;;;;;5053821;28;20119;-78
2021/08/21 06:18:48;;;;;;;12.77;6.60;;;16.10;99.90;;;;;;5051665;28;20053;-80
2021/08/21 06:21:13;;;;;;;;;;;16.20;99.90;;;;;;5053872;28;20190;-81
2021/08/21 06:23:40;;;;;;;10.48;5.55;;;16.20;99.90;;;;;;5052742;28;20381;-80
2021/08/21 06:26:05;;;;;;;14.32;6.32;;;16.30;99.90;;;;;;5052143;28;20033;-78
2021/08/21 06:28:31;;;;;;;6.13;5.13;;;16.40;99.90;;;;;;5049748;28;20399;-80
2021/08/21 06:30:57;;;;;;;11.32;5.78;;;16.50;99.90;;;;;;5052118;28;20045;-79
2021/08/21 06:33:23;;;;;;;;;;;16.60;99.90;;;;;;5050362;28;20501;-79
2021/08/21 06:35:48;;;;;;;10.80;6.40;;;16.70;99.90;;;;;;5053561;28;19916;-80
2021/08/21 06:38:15;;;;;;;9.68;6.22;;;16.80;99.90;;;;;;5051875;28;20099;-79
2021/08/21 06:40:41;;;;;;;11.32;5.40;;;16.90;99.90;;;;;;5053109;28;20065;-80
2021/08/21 06:43:06;;;;;;;;;;;17.00;99.90;;;;;;5051895;28;20037;-79
2021/08/21 06:45:32;;;;;;;10.20;5.15;;;17.10;99.90;;;;;;5050915;28;19943;-78
2021/08/21 06:47:58;;;;;;;8.25;5.18;;;17.30;99.90;;;;;;5051389;28;20032;-79
2021/08/21 06:50:24;;;;;;;10.00;5.05;;;17.30;99.90;;;;;;5052967;28;20597;-80
2021/08/21 06:52:51;;;;;;;;;;;17.40;99.90;;;;;;5051104;28;20061;-80
2021/08/21 06:55:18;;;;;;;10.15;6.18;;;17.60;99.90;;;;;;5051435;28;20354;-80
2021/08/21 06:57:43;;;;;;;9.45;5.15;;;17.70;99.90;;;;;;5047723;28;20672;-79
2021/08/21 07:00:09;;;;;;;;;;;17.80;99.90;;;;;;5051918;28;20165;-79
2021/08/21 07:02:35;;;;;;;8.32;6.15;;;17.90;99.90;;;;;;5052210;28;20362;-77
2021/08/21 07:05:02;;;;;;;11.07;6.43;;;18.10;99.90;;;;;;5048107;28;20041;-80
2021/08/21 07:07:30;;;;;;;13.68;6.72;;;18.30;99.90;;;;;;5043787;28;20451;-81
2021/08/21 07:09:55;;;;;;;;;;;18.50;99.90;;;;;;5053168;28;20086;-81
2021/08/21 07:12:21;;;;;;;12.35;5.60;;;18.60;99.90;;;;;;5050805;28;19920;-81
2021/08/21 07:14:47;;;;;;;;;;;18.70;99.90;;;;;;5050275;28;20090;-82
2021/08/21 07:17:14;;;;;;;11.77;7.60;;;18.90;99.90;;;;;;5050571;28;19985;-80
2021/08/21 07:19:42;;;;;;;12.30;6.40;;;19.00;99.90;;;;;;5051587;28;20045;-80
2021/08/21 07:22:09;;;;;;;13.90;6.78;;;19.10;99.90;;;;;;5052807;28;20403;-79
2021/08/21 07:24:35;;;;;;;12.38;7.35;;;19.20;99.90;;;;;;5048470;28;20041;-81
2021/08/21 07:27:01;;;;;;;11.98;7.65;;;19.30;99.90;;;;;;5050038;28;20048;-79
2021/08/21 07:29:26;;;;;;;;;;;19.40;99.90;;;;;;5052147;28;20045;-81
2021/08/21 07:31:52;;;;;;;12.45;7.28;;;19.40;99.90;;;;;;5048139;28;20376;-79
2021/08/21 07:34:18;;;;;;;10.55;6.15;;;19.50;99.90;;;;;;5050529;28;20033;-79
2021/08/21 07:36:43;;;;;;;;;;;19.60;99.90;;;;;;5052233;28;20036;-81
2021/08/21 07:39:10;;;;;;;12.75;6.35;;;19.70;99.90;;;;;;5050556;28;19921;-80
2021/08/21 07:41:36;;;;;;;10.38;6.43;;;19.80;99.90;;;;;;5051615;28;20032;-81
2021/08/21 07:44:03;;;;;;;12.20;6.97;;;20.10;99.90;;;;;;5049027;28;20045;-80
2021/08/21 07:46:29;;;;;;;11.43;6.20;;;20.10;99.90;;;;;;5051132;28;20063;-81
2021/08/21 07:48:55;;;;;;;11.98;6.93;;;20.30;99.90;;;;;;5050055;28;20401;-80
2021/08/21 07:51:21;;;;;;;13.80;6.25;;;20.20;99.90;;;;;;5051183;28;20036;-80
2021/08/21 07:53:46;;;;;;;8.32;6.13;;;20.20;99.90;;;;;;5051055;28;20040;-80
2021/08/21 07:56:12;;;;;;;12.02;6.80;;;20.20;99.90;;;;;;5034097;28;20036;-82
2021/08/21 07:58:38;;;;;;;12.10;6.72;;;20.40;99.90;;;;;;5046056;28;20033;-81
2021/08/21 08:01:04;;;;;;;12.05;6.38;;;20.60;99.90;;;;;;5049272;28;20040;-82
2021/08/21 08:03:30;;;;;;;11.98;5.72;;;20.80;99.90;;;;;;5049696;28;20452;-80
2021/08/21 08:05:56;;;;;;;10.13;5.55;;;20.70;99.90;;;;;;5048174;28;20051;-80
2021/08/21 08:08:23;;;;;;;11.63;6.18;;;20.80;99.90;;;;;;5052023;28;20097;-80
2021/08/21 08:10:50;;;;;;;11.85;5.18;;;20.90;99.90;;;;;;5052083;28;20049;-82
2021/08/21 08:13:16;;;;;;;8.73;5.50;;;20.90;99.90;;;;;;5051027;28;20111;-82
2021/08/21 08:15:43;;;;;;;9.32;5.95;;;20.80;99.90;;;;;;5050023;28;20363;-79
2021/08/21 08:18:09;;;;;;;11.13;5.47;;;20.80;99.90;;;;;;5050020;28;20049;-81
2021/08/21 08:20:35;;;;;;;8.88;5.60;;;20.70;99.90;;;;;;5049022;28;20049;-80
2021/08/21 08:23:02;;;;;;;10.23;5.45;;;20.60;99.90;;;;;;5050859;28;20033;-80
2021/08/21 08:25:29;;;;;;;8.63;5.05;;;20.60;99.90;;;;;;5050216;28;20037;-81
2021/08/21 08:27:54;;;;;;;10.50;5.25;;;20.70;99.90;;;;;;5048239;28;20029;-81
2021/08/21 08:30:20;;;;;;;8.93;4.82;;;20.80;99.90;;;;;;5047793;28;20052;-81
2021/08/21 08:32:46;;;;;;;8.68;5.40;;;20.90;99.90;;;;;;5048875;28;20040;-81
2021/08/21 08:35:12;;;;;;;6.50;4.40;;;21.10;99.90;;;;;;5049986;28;20033;-80
2021/08/21 08:37:39;;;;;;;10.82;5.68;;;21.30;99.90;;;;;;5050416;28;20040;-79
2021/08/21 08:40:09;;;;;;;12.55;5.90;;;21.40;99.90;;;;;;5050726;28;20064;-80
2021/08/21 08:42:38;;;;;;;7.25;5.18;;;21.30;99.90;;;;;;5038625;28;20075;-81
2021/08/21 08:45:05;;;;;;;7.65;4.22;;;21.20;99.90;;;;;;5033880;28;20068;-79
2021/08/21 08:47:31;;;;;;;7.72;4.13;;;21.20;99.90;;;;;;5037548;28;20479;-80
2021/08/21 08:50:03;;;;;;;9.10;5.07;;;21.30;99.90;;;;;;5035933;28;20037;-81
2021/08/21 08:52:29;;;;;;;9.25;5.18;;;21.30;99.90;;;;;;5044818;28;20057;-82
2021/08/21 08:54:56;;;;;;;5.32;3.85;;;21.40;99.90;;;;;;5047294;28;20039;-81
2021/08/21 08:57:38;;;;;;;8.10;4.53;;;21.40;99.90;;;;;;5045796;28;20048;-82
2021/08/21 09:00:10;;;;;;;8.77;4.78;;;21.60;99.90;;;;;;5047105;28;20395;-83
2021/08/21 09:02:39;;;;;;;5.82;3.83;;;21.80;99.90;;;;;;5045566;28;20049;-85
2021/08/21 09:05:09;;;;;;;5.07;3.50;;;21.80;99.90;;;;;;5044806;28;20045;-80
2021/08/21 09:07:42;;;;;;;4.60;3.35;;;21.80;99.90;;;;;;5045954;28;20071;-79
2021/08/21 09:10:29;;;;;;;9.15;4.95;;;21.80;99.90;;;;;;5047092;28;20580;-83
2021/08/21 09:13:13;;;;;;;9.30;4.72;;;21.90;99.90;;;;;;5052370;28;20475;-85
2021/08/21 09:16:02;;;;;;;5.68;3.67;;;21.90;99.90;;;;;;5051217;28;20098;-82
2021/08/21 09:18:30;;;;;;;6.13;4.57;;;21.90;99.90;;;;;;5065979;28;20206;-81
2021/08/21 09:21:06;;;;;;;4.80;3.20;;;21.90;99.90;;;;;;5031546;28;20060;-82
2021/08/21 09:23:46;;;;;;;6.10;4.07;;;21.80;99.90;;;;;;5051787;28;20045;-84
2021/08/21 09:26:25;;;;;;;11.02;4.90;;;21.80;99.90;;;;;;5049233;28;20040;-83
2021/08/21 09:28:52;;;;;;;5.97;3.40;;;21.90;99.90;;;;;;5049305;28;20047;-83
2021/08/21 09:31:22;;;;;;;7.55;4.15;;;22.10;99.90;;;;;;5030734;28;20041;-80
2021/08/21 09:33:54;;;;;;;10.63;4.38;;;22.10;99.90;;;;;;5052422;28;20060;-81
2021/08/21 09:36:33;;;;;;;5.47;2.70;;;22.10;99.90;;;;;;5056441;28;20044;-83
2021/08/21 09:39:07;;;;;;;4.70;3.30;;;22.10;99.90;;;;;;5050895;28;20044;-81
2021/08/21 09:41:59;;;;;;;4.68;3.60;;;22.10;99.90;;;;;;5052424;28;20060;-84
2021/08/21 09:44:44;;;;;;;5.82;3.55;;;21.90;99.90;;;;;;5028479;28;20049;-82
2021/08/21 09:47:23;;;;;;;7.72;3.30;;;21.90;99.90;;;;;;5042731;28;20040;-82
2021/08/21 09:49:51;;;;;;;6.70;3.08;;;22.00;99.90;;;;;;5050999;28;20041;-81
2021/08/21 09:52:19;;;;;;;4.38;3.13;;;22.10;99.90;;;;;;5039569;28;20053;-81
2021/08/21 09:55:09;;;;;;;4.78;2.40;;;22.40;99.90;;;;;;5050010;28;20044;-80
2021/08/21 09:57:36;;;;;;;5.35;2.63;;;22.60;99.90;;;;;;5049170;28;20045;-81
2021/08/21 10:00:04;;;;;;;3.58;2.47;;;;;;;;;;5052344;28;20037;-80
2021/08/21 10:02:32;;;;;;;5.70;2.47;;;22.90;99.90;;;;;;5043020;28;21773;-83
2021/08/21 10:04:59;;;;;;;6.78;2.85;;;23.20;99.90;;;;;;5042673;28;20037;-80
2021/08/21 10:07:38;;;;;;;3.35;2.25;;;;;;;;;;5048483;28;20056;-80
2021/08/21 10:10:07;;;;;;;3.25;2.30;;;23.70;99.90;;;;;;5042822;28;20032;-80
2021/08/21 10:12:37;;;;;;;4.65;2.50;;;23.80;99.90;;;;;;5045226;28;20107;-81
2021/08/21 10:15:03;;;;;;;3.88;2.30;;;23.70;99.90;;;;;;5046184;28;20052;-80
2021/08/21 10:17:31;;;;;;;8.63;2.50;;;23.60;99.90;;;;;;5045067;28;20153;-84
2021/08/21 10:19:58;;;;;;;5.10;2.47;;;23.40;99.90;;;;;;5046180;28;20050;-82
2021/08/21 10:22:34;;;;;;;4.55;2.03;;;23.40;99.90;;;;;;5040143;28;20060;-84
2021/08/21 10:25:09;;;;;;;2.75;1.92;;;23.40;99.90;;;;;;5044654;28;20029;-84
2021/08/21 10:27:47;;;;;;;3.28;2.30;;;23.30;99.90;;;;;;5048537;28;20123;-84
2021/08/21 10:30:25;;;;;;;1.90;1.30;;;23.30;99.90;;;;;;5045140;28;20044;-84
2021/08/21 10:33:02;;;;;;;3.67;2.30;;;23.10;99.90;;;;;;5050006;28;20033;-83
2021/08/21 10:35:47;;;;;;;1.92;1.30;;;23.10;99.90;;;;;;5047010;28;20039;-83
2021/08/21 10:38:32;;;;;;;6.45;2.38;;;23.00;99.90;;;;;;5046192;28;20033;-82
2021/08/21 10:41:00;;;;;;;2.72;2.10;;;22.80;99.90;;;;;;5044185;28;20117;-80
2021/08/21 10:43:50;;;;;;;3.72;2.20;;;22.80;99.90;;;;;;5043546;28;20048;-80
2021/08/21 10:46:31;;;;;;;3.97;2.53;;;22.80;99.90;;;;;;5043708;28;20036;-80
2021/08/21 10:49:04;;;;;;;1.83;1.25;;;22.80;99.90;;;;;;5044329;28;20052;-81
2021/08/21 10:51:41;;;;;;;4.53;2.60;;;22.70;99.90;;;;;;5047584;28;20069;-81
2021/08/21 10:54:27;;;;;;;;;;;22.90;99.90;;;;;;5052538;28;20036;-81
2021/08/21 10:56:57;;;;;;;3.08;1.67;;;23.10;99.90;;;;;;5035712;28;20002;-80
2021/08/21 10:59:40;;;;;;;6.32;2.60;;;23.20;99.90;;;;;;5045222;28;20045;-80
2021/08/21 11:02:21;;;;;;;2.67;1.55;;;23.30;99.90;;;;;;5043445;28;20064;-80
2021/08/21 11:04:47;;;;;;;4.50;2.10;;;23.30;99.90;;;;;;5045020;28;20041;-80
2021/08/21 11:07:37;;;;;;;5.15;2.47;;;23.60;99.90;;;;;;5043113;28;20041;-80
2021/08/21 11:10:22;;;;;;;3.00;1.80;;;23.90;99.90;;;;;;5051898;28;20043;-82
2021/08/21 11:12:51;;;;;;;3.13;1.98;;;24.20;99.90;;;;;;5051380;28;20045;-80
2021/08/21 11:15:22;;;;;;;2.75;1.88;;;24.50;99.90;;;;;;5052475;28;20470;-79
2021/08/21 11:17:49;;;;;;;2.88;1.70;;;24.60;99.90;;;;;;5053006;28;20040;-81
2021/08/21 11:20:35;;;;;;;3.47;1.50;;;24.80;99.90;;;;;;5051125;28;20052;-80
2021/08/21 11:23:07;;;;;;;3.10;2.40;;;24.70;99.90;;;;;;5052230;28;20413;-82
2021/08/21 11:25:34;;;;;;;2.40;1.45;;;24.50;99.90;;;;;;5052104;28;20311;-80
2021/08/21 11:28:06;;;;;;;3.03;2.05;;;24.10;99.90;;;;;;5052408;28;20112;-80
2021/08/21 11:30:33;;;;;;;4.05;2.17;;;23.90;99.90;;;;;;5055111;28;20519;-81
2021/08/21 11:33:03;;;;;;;2.92;2.28;;;23.80;99.90;;;;;;5055345;28;20060;-79
2021/08/21 11:35:45;;;;;;;3.15;2.28;;;23.60;99.90;;;;;;5057490;28;20158;-80
2021/08/21 11:38:13;;;;;;;2.80;1.65;;;23.40;99.90;;;;;;5052781;28;20123;-81
2021/08/21 11:40:48;;;;;;;2.65;1.65;;;23.30;99.90;;;;;;5052573;28;20037;-81
2021/08/21 11:43:17;;;;;;;2.85;1.70;;;23.30;99.90;;;;;;5053126;28;20037;-80
2021/08/21 11:45:44;;;;;;;2.15;1.77;;;23.40;99.90;;;;;;5052630;28;20044;-81
2021/08/21 11:48:10;;;;;;;4.03;2.03;;;23.40;99.90;;;;;;5051835;28;20037;-81
2021/08/21 11:50:37;;;;;;;4.85;2.25;;;23.50;99.90;;;;;;5050127;28;20036;-81
2021/08/21 11:53:36;;;;;;;2.60;1.60;;;23.40;99.90;;;;;;5053188;28;20048;-82
2021/08/21 11:56:02;;;;;;;5.00;1.85;;;23.40;99.90;;;;;;5051927;28;20087;-80
2021/08/21 11:58:46;;;;;;;2.47;1.55;;;23.30;99.90;;;;;;5050920;28;20037;-80
2021/08/21 12:01:14;;;;;;;2.38;1.52;;;23.40;99.90;;;;;;5031955;28;20036;-81
2021/08/21 12:06:26;;;;;;;3.75;1.67;;;23.80;99.90;;;;;;5052036;28;20051;-80
2021/08/21 12:09:15;;;;;;;3.03;1.60;;;23.80;99.90;;;;;;5039475;28;20136;-81
2021/08/21 12:11:44;;;;;;;2.15;1.48;;;23.70;99.90;;;;;;5050549;28;20037;-82
2021/08/21 12:14:11;;;;;;;2.42;1.70;;;23.70;99.90;;;;;;5052208;28;20390;-82
2021/08/21 12:16:37;;;;;;;1.38;1.08;;;23.50;99.90;;;;;;5051787;28;20121;-81
2021/08/21 12:19:04;;;;;;;2.53;1.88;;;23.40;99.90;;;;;;5051224;28;20080;-81
2021/08/21 12:21:31;;;;;;;2.22;1.60;;;23.30;99.90;;;;;;5052789;28;20091;-81
2021/08/21 12:23:57;;;;;;;4.00;1.70;;;23.40;99.90;;;;;;5035467;28;20112;-81
2021/08/21 12:26:38;;;;;;;1.88;1.45;;;23.80;99.90;;;;;;5052659;28;20100;-80
2021/08/21 12:29:05;;;;;;;3.88;1.60;;;24.10;99.90;;;;;;5052900;28;20029;-80
2021/08/21 12:31:39;;;;;;;3.03;1.90;;;24.30;99.90;;;;;;5034859;28;20045;-80
2021/08/21 12:34:07;;;;;;;1.90;1.40;;;24.40;99.90;;;;;;5052072;28;20099;-81
2021/08/21 12:36:41;;;;;;;2.47;1.60;;;24.40;99.90;;;;;;5048604;28;20041;-79
2021/08/21 12:39:14;;;;;;;2.28;1.77;;;24.50;99.90;;;;;;5048963;28;20041;-81
2021/08/21 12:41:54;;;;;;;2.85;1.98;;;24.80;99.90;;;;;;5035929;28;20479;-80
2021/08/21 12:44:42;;;;;;;1.80;1.45;;;25.20;99.90;;;;;;5039011;28;20060;-80
2021/08/21 12:47:16;;;;;;;3.05;1.42;;;25.30;99.90;;;;;;5052319;28;20108;-81
2021/08/21 12:49:45;;;;;;;1.77;1.40;;;25.40;99.90;;;;;;5034313;28;20037;-80
2021/08/21 12:52:20;;;;;;;5.55;1.60;;;25.50;99.90;;;;;;5050769;28;20044;-80
2021/08/21 12:54:55;;;;;;;1.90;1.13;;;25.60;99.90;;;;;;5051622;28;20149;-81
2021/08/21 12:57:21;;;;;;;2.17;1.47;;;25.70;99.90;;;;;;5050724;28;20033;-80
2021/08/21 12:59:59;;;;;;;1.45;1.23;;;25.80;99.70;;;;;;5049939;28;20110;-80
2021/08/21 13:02:25;;;;;;;2.05;1.10;;;25.80;97.10;;;;;;5043483;28;20110;-81
2021/08/21 13:05:01;;;;;;;1.63;1.30;;;25.90;99.50;;;;;;5049067;28;20037;-80